Time;durP1;ratioP1;P1;durP2;ratioP2;P2;SDS_P1;SDS_P2;PMS_P1;PMS_P2;Temp;Humidity;BMP_temperature;BMP_pressure;BME280_temperature;BME280_humidity;BME280_pressure;Samples;Min_cycle;Max_cycle;Signal;HPM_P1;HPM_P2
2022/10/20 00:00:29;;;;;;;6.80;2.65;;;;;;;;;;1039510;28;20030;-83
2022/10/20 00:01:00;;;;;;;3.70;2.70;;;;;;;;;;1039266;28;20026;-83
2022/10/20 00:01:31;;;;;;;3.15;2.70;;;;;;;;;;1038665;28;20029;-82
2022/10/20 00:02:02;;;;;;;3.53;2.40;;;;;;;;;;1039420;28;20021;-82
2022/10/20 00:02:33;;;;;;;3.63;2.60;;;;;;;;;;1038100;28;20500;-83
2022/10/20 00:03:04;;;;;;;7.28;3.08;;;;;;;;;;1035502;28;20037;-82
2022/10/20 00:03:35;;;;;;;4.90;2.97;;;;;;;;;;1035009;28;20022;-83
2022/10/20 00:04:06;;;;;;;4.75;2.90;;;;;;;;;;1035347;28;20121;-82
2022/10/20 00:04:37;;;;;;;3.58;2.47;;;;;;;;;;1038934;28;20026;-82
2022/10/20 00:05:08;;;;;;;4.43;2.47;;;;;;;;;;1035682;28;20030;-82
2022/10/20 00:05:39;;;;;;;3.47;2.38;;;;;;;;;;1039467;28;20480;-82
2022/10/20 00:06:20;;;;;;;3.70;2.13;;;;;;;;;;1038666;28;20110;-82
2022/10/20 00:06:51;;;;;;;5.30;3.60;;;;;;;;;;1035138;28;20527;-83
2022/10/20 00:07:22;;;;;;;6.45;3.33;;;;;;;;;;1035251;28;20081;-82
2022/10/20 00:07:53;;;;;;;3.90;2.95;;;;;;;;;;1039760;28;20190;-83
2022/10/20 00:08:24;;;;;;;5.13;2.63;;;;;;;;;;1040206;28;20100;-83
2022/10/20 00:08:56;;;;;;;6.78;3.47;;;;;;;;;;1039117;28;20721;-82
2022/10/20 00:09:27;;;;;;;5.80;3.08;;;;;;;;;;1038255;28;20022;-83
2022/10/20 00:09:58;;;;;;;5.63;3.20;;;;;;;;;;1039058;28;20025;-82
2022/10/20 00:10:30;;;;;;;5.00;2.38;;;;;;;;;;1039529;28;20538;-82
2022/10/20 00:11:01;;;;;;;2.95;2.22;;;;;;;;;;1043286;28;19997;-82
2022/10/20 00:11:32;;;;;;;3.90;2.58;;;;;;;;;;1039279;28;20018;-83
2022/10/20 00:12:03;;;;;;;3.55;2.45;;;;;;;;;;1039527;28;20026;-83
2022/10/20 00:12:34;;;;;;;5.35;3.67;;;;;;;;;;1039347;28;20025;-82
2022/10/20 00:13:05;;;;;;;3.92;3.00;;;;;;;;;;1042677;28;20017;-82
2022/10/20 00:13:36;;;;;;;7.03;2.38;;;;;;;;;;1039547;28;20049;-82
2022/10/20 00:14:07;;;;;;;3.42;2.58;;;;;;;;;;1039347;28;20072;-82
2022/10/20 00:14:38;;;;;;;4.38;2.63;;;;;;;;;;1034752;28;20187;-83
2022/10/20 00:15:10;;;;;;;5.82;2.83;;;;;;;;;;1039554;28;20048;-82
2022/10/20 00:15:47;;;;;;;7.72;3.17;;;;;;;;;;1039238;28;20136;-83
2022/10/20 00:16:18;;;;;;;4.60;2.85;;;;;;;;;;1035270;28;20115;-83
2022/10/20 00:16:49;;;;;;;4.30;2.97;;;;;;;;;;1035197;28;20022;-82
2022/10/20 00:17:20;;;;;;;4.85;3.40;;;;;;;;;;1036199;28;20395;-83
2022/10/20 00:17:51;;;;;;;3.72;2.20;;;;;;;;;;1032510;28;20038;-82
2022/10/20 00:18:23;;;;;;;5.30;3.40;;;;;;;;;;1035452;28;20824;-82
2022/10/20 00:18:55;;;;;;;6.57;2.90;;;;;;;;;;1031639;28;20505;-82
2022/10/20 00:19:27;;;;;;;4.15;2.85;;;;;;;;;;1035439;28;20072;-83
2022/10/20 00:19:58;;;;;;;4.45;3.13;;;;;;;;;;1034354;28;20029;-82
2022/10/20 00:20:29;;;;;;;5.57;3.00;;;;;;;;;;1027513;28;20089;-82
2022/10/20 00:21:00;;;;;;;5.93;3.60;;;;;;;;;;1027623;28;20030;-82
2022/10/20 00:21:31;;;;;;;3.08;2.70;;;;;;;;;;1031019;28;20030;-83
2022/10/20 00:22:02;;;;;;;4.82;2.80;;;;;;;;;;1035194;28;20025;-82
2022/10/20 00:22:33;;;;;;;5.43;3.58;;;;;;;;;;1038197;28;20392;-83
2022/10/20 00:23:04;;;;;;;3.35;3.05;;;;;;;;;;1034777;28;20029;-83
2022/10/20 00:23:35;;;;;;;5.47;2.88;;;;;;;;;;1035822;28;20026;-82
2022/10/20 00:24:06;;;;;;;7.22;3.17;;;;;;;;;;1031872;28;20030;-83
2022/10/20 00:24:37;;;;;;;7.35;2.55;;;;;;;;;;1036944;28;20026;-82
2022/10/20 00:25:08;;;;;;;6.05;3.30;;;;;;;;;;1039151;28;20591;-83
2022/10/20 00:25:39;;;;;;;3.28;2.47;;;;;;;;;;1042654;28;20029;-83
2022/10/20 00:26:12;;;;;;;3.63;2.50;;;;;;;;;;1043878;28;20147;-82
2022/10/20 00:26:43;;;;;;;4.45;2.85;;;;;;;;;;1039692;28;20037;-83
2022/10/20 00:27:14;;;;;;;5.18;2.75;;;;;;;;;;1038736;28;20048;-83
2022/10/20 00:27:45;;;;;;;2.75;2.20;;;;;;;;;;1039042;28;20524;-83
2022/10/20 00:28:16;;;;;;;3.83;2.78;;;;;;;;;;1039215;28;20065;-83
2022/10/20 00:28:47;;;;;;;4.57;2.47;;;;;;;;;;1038357;28;20048;-82
2022/10/20 00:29:18;;;;;;;4.78;3.20;;;;;;;;;;1034971;28;20619;-83
2022/10/20 00:29:49;;;;;;;6.43;3.08;;;;;;;;;;1037753;28;20610;-83
2022/10/20 00:30:20;;;;;;;7.05;3.33;;;;;;;;;;1039321;28;20075;-82
2022/10/20 00:30:54;;;;;;;5.88;3.30;;;;;;;;;;1039172;28;20018;-83
2022/10/20 00:31:26;;;;;;;4.63;3.50;;;;;;;;;;1039241;28;20021;-82
2022/10/20 00:31:57;;;;;;;5.53;3.55;;;;;;;;;;1038962;28;20082;-82
2022/10/20 00:32:29;;;;;;;5.65;3.28;;;;;;;;;;1039383;28;20708;-82
2022/10/20 00:33:01;;;;;;;6.32;2.90;;;;;;;;;;1038941;28;20025;-83
2022/10/20 00:33:32;;;;;;;3.63;2.55;;;;;;;;;;1039985;28;20024;-83
2022/10/20 00:34:03;;;;;;;6.22;2.97;;;;;;;;;;1044023;28;20098;-82
2022/10/20 00:34:34;;;;;;;4.43;3.13;;;;;;;;;;1039073;28;20432;-82
2022/10/20 00:35:06;;;;;;;4.15;2.95;;;;;;;;;;1038891;28;20113;-82
2022/10/20 00:35:38;;;;;;;5.88;3.20;;;;;;;;;;1039006;28;20029;-82
2022/10/20 00:36:11;;;;;;;5.60;2.65;;;;;;;;;;1039461;28;20036;-83
2022/10/20 00:36:42;;;;;;;4.50;3.10;;;;;;;;;;1043657;28;20080;-82
2022/10/20 00:37:14;;;;;;;4.40;2.78;;;;;;;;;;1039079;28;20513;-82
2022/10/20 00:37:45;;;;;;;5.03;2.83;;;;;;;;;;1039114;28;20454;-82
2022/10/20 00:38:16;;;;;;;3.15;2.53;;;;;;;;;;1036261;28;20570;-83
2022/10/20 00:38:46;;;;;;;8.20;3.22;;;;;;;;;;1031087;28;20121;-83
2022/10/20 00:39:17;;;;;;;4.05;2.72;;;;;;;;;;1031914;28;20060;-82
2022/10/20 00:39:49;;;;;;;3.20;2.55;;;;;;;;;;1032217;28;20053;-82
2022/10/20 00:40:20;;;;;;;10.27;3.35;;;;;;;;;;1035145;28;20034;-82
2022/10/20 00:40:51;;;;;;;4.95;3.08;;;;;;;;;;1039122;28;20017;-83
2022/10/20 00:41:22;;;;;;;3.70;2.70;;;;;;;;;;1035231;28;20037;-81
2022/10/20 00:41:54;;;;;;;5.97;2.90;;;;;;;;;;1039369;28;20056;-82
2022/10/20 00:42:25;;;;;;;6.43;3.00;;;;;;;;;;1034652;28;20045;-82
2022/10/20 00:42:56;;;;;;;6.82;3.30;;;;;;;;;;1035408;28;20037;-82
2022/10/20 00:43:40;;;;;;;4.35;2.58;;;;;;;;;;1041479;28;20441;-83
2022/10/20 00:44:29;;;;;;;6.20;3.50;;;;;;;;;;1039911;28;20105;-83
2022/10/20 00:45:01;;;;;;;5.05;3.30;;;;;;;;;;1041627;28;20047;-82
2022/10/20 00:45:32;;;;;;;4.75;3.42;;;;;;;;;;1038697;28;20033;-83
2022/10/20 00:46:03;;;;;;;6.15;3.38;;;;;;;;;;1038847;28;20022;-82
2022/10/20 00:46:39;;;;;;;5.47;3.13;;;;;;;;;;1039407;28;20018;-82
2022/10/20 00:47:12;;;;;;;3.50;2.92;;;;;;;;;;1030774;28;20105;-82
2022/10/20 00:47:45;;;;;;;4.90;3.53;;;;;;;;;;1031778;28;20405;-82
2022/10/20 00:48:20;;;;;;;6.57;3.40;;;;;;;;;;1034998;28;20018;-82
2022/10/20 00:48:53;;;;;;;6.25;3.75;;;;;;;;;;1032200;28;20006;-83
2022/10/20 00:49:25;;;;;;;5.15;3.67;;;;;;;;;;1035635;28;20052;-83
2022/10/20 00:49:58;;;;;;;5.95;4.05;;;;;;;;;;1034291;28;20014;-83
2022/10/20 00:50:31;;;;;;;5.45;3.20;;;;;;;;;;1035783;28;20108;-83
2022/10/20 00:51:02;;;;;;;5.40;3.15;;;;;;;;;;1034712;28;20112;-83
2022/10/20 00:51:33;;;;;;;4.78;3.13;;;;;;;;;;1035500;28;20152;-83
2022/10/20 00:52:04;;;;;;;5.00;3.35;;;;;;;;;;1039567;28;20025;-83
2022/10/20 00:52:36;;;;;;;5.78;3.60;;;;;;;;;;1034992;28;20014;-82
2022/10/20 00:53:07;;;;;;;7.55;3.58;;;;;;;;;;1035031;28;20670;-83
2022/10/20 00:53:38;;;;;;;6.95;2.83;;;;;;;;;;1037244;28;20381;-83
2022/10/20 00:54:11;;;;;;;4.28;2.75;;;;;;;;;;1035667;28;20382;-82
2022/10/20 00:54:42;;;;;;;5.07;3.60;;;;;;;;;;1039035;28;20028;-82
2022/10/20 00:55:16;;;;;;;6.10;2.83;;;;;;;;;;1038403;28;20127;-82
2022/10/20 00:55:48;;;;;;;11.15;3.35;;;;;;;;;;1039306;28;20017;-82
2022/10/20 00:56:20;;;;;;;6.72;4.25;;;;;;;;;;1035281;28;20145;-83
2022/10/20 00:56:53;;;;;;;6.32;3.28;;;;;;;;;;1035759;28;20746;-83
2022/10/20 00:57:24;;;;;;;5.75;3.65;;;;;;;;;;1035394;28;20477;-82
2022/10/20 00:57:56;;;;;;;5.50;3.63;;;;;;;;;;1039012;28;20124;-82
2022/10/20 00:58:28;;;;;;;5.53;3.45;;;;;;;;;;1038872;28;20428;-82
2022/10/20 00:59:00;;;;;;;3.78;2.42;;;;;;;;;;1038774;28;20021;-82
2022/10/20 00:59:33;;;;;;;7.93;3.53;;;;;;;;;;1036310;28;20393;-83
2022/10/20 01:00:07;;;;;;;5.50;3.42;;;;;;;;;;1038633;28;20115;-83
2022/10/20 01:00:39;;;;;;;5.75;4.47;;;;;;;;;;1038952;28;20017;-83
2022/10/20 01:01:10;;;;;;;4.93;4.18;;;;;;;;;;1039140;28;20028;-83
2022/10/20 01:01:42;;;;;;;8.43;3.90;;;;;;;;;;1034653;28;20014;-83
2022/10/20 01:02:13;;;;;;;6.18;4.20;;;;;;;;;;1036106;28;20410;-82
2022/10/20 01:02:45;;;;;;;4.85;3.72;;;;;;;;;;1034912;28;20401;-82
2022/10/20 01:03:19;;;;;;;7.28;3.55;;;;;;;;;;1031263;28;20459;-83
2022/10/20 01:03:51;;;;;;;5.30;3.35;;;;;;;;;;1030795;28;20053;-83
2022/10/20 01:04:22;;;;;;;4.13;3.20;;;;;;;;;;1033021;28;20026;-83
2022/10/20 01:04:53;;;;;;;5.10;4.28;;;;;;;;;;1032058;28;20014;-83
2022/10/20 01:05:24;;;;;;;8.25;3.78;;;;;;;;;;1031161;28;20022;-82
2022/10/20 01:05:55;;;;;;;5.07;4.18;;;;;;;;;;1030711;28;20029;-83
2022/10/20 01:06:26;;;;;;;5.32;3.55;;;;;;;;;;1033576;28;20018;-83
2022/10/20 01:06:57;;;;;;;8.07;3.42;;;;;;;;;;1035417;28;20448;-82
2022/10/20 01:07:28;;;;;;;5.20;3.28;;;;;;;;;;1034999;28;20096;-83
2022/10/20 01:08:00;;;;;;;6.85;3.80;;;;;;;;;;1034571;28;20033;-82
2022/10/20 01:08:31;;;;;;;3.90;3.45;;;;;;;;;;1039222;28;20053;-83
2022/10/20 01:09:02;;;;;;;4.65;3.28;;;;;;;;;;1034891;28;20025;-82
2022/10/20 01:09:33;;;;;;;7.38;4.38;;;;;;;;;;1035195;28;20072;-83
2022/10/20 01:10:04;;;;;;;8.95;4.07;;;;;;;;;;1030975;28;20028;-82
2022/10/20 01:10:39;;;;;;;7.90;4.45;;;;;;;;;;1031249;28;20027;-82
2022/10/20 01:11:15;;;;;;;3.85;2.83;;;;;;;;;;1037432;28;20041;-83
2022/10/20 01:11:46;;;;;;;5.88;3.47;;;;;;;;;;1042641;28;20020;-82
2022/10/20 01:12:21;;;;;;;4.30;3.20;;;;;;;;;;1043955;28;20022;-83
2022/10/20 01:13:01;;;;;;;4.78;3.45;;;;;;;;;;1038810;28;20033;-82
2022/10/20 01:13:41;;;;;;;4.38;3.10;;;;;;;;;;1038496;28;20664;-82
2022/10/20 01:14:25;;;;;;;4.82;3.10;;;;;;;;;;1038894;28;20014;-82
2022/10/20 01:15:19;;;;;;;7.43;4.57;;;;;;;;;;1039313;28;20018;-82
2022/10/20 01:15:58;;;;;;;6.90;4.45;;;;;;;;;;1035912;28;20097;-82
2022/10/20 01:16:38;;;;;;;5.30;2.95;;;;;;;;;;1039460;28;20064;-82
2022/10/20 01:17:15;;;;;;;6.65;3.45;;;;;;;;;;1039136;28;20064;-82
2022/10/20 01:17:49;;;;;;;6.22;4.50;;;;;;;;;;1038861;28;20064;-82
2022/10/20 01:18:24;;;;;;;4.43;3.38;;;;;;;;;;1034692;28;20021;-82
2022/10/20 01:18:55;;;;;;;5.65;4.03;;;;;;;;;;1030875;28;20054;-82
2022/10/20 01:19:44;;;;;;;5.25;3.95;;;;;;;;;;1031854;28;20586;-83
2022/10/20 01:20:44;;;;;;;5.20;3.58;;;;;;;;;;1039273;28;20026;-82
2022/10/20 01:21:25;;;;;;;7.90;3.70;;;;;;;;;;1038772;28;20392;-82
2022/10/20 01:22:07;;;;;;;7.65;3.95;;;;;;;;;;1030681;28;20093;-82
2022/10/20 01:22:47;;;;;;;6.72;4.40;;;;;;;;;;1031411;28;20003;-82
2022/10/20 01:23:33;;;;;;;4.47;3.90;;;;;;;;;;1032306;28;20023;-82
2022/10/20 01:24:04;;;;;;;6.95;4.00;;;;;;;;;;1034802;28;20055;-82
2022/10/20 01:24:55;;;;;;;5.65;3.90;;;;;;;;;;1038523;28;20076;-83
2022/10/20 01:25:46;;;;;;;5.28;4.10;;;;;;;;;;1038896;28;20018;-83
2022/10/20 01:26:35;;;;;;;6.88;3.90;;;;;;;;;;1034435;28;20057;-82
2022/10/20 01:27:09;;;;;;;5.88;4.05;;;;;;;;;;1031640;28;20069;-82
2022/10/20 01:27:42;;;;;;;5.65;4.05;;;;;;;;;;1035047;28;20026;-83
2022/10/20 01:28:27;;;;;;;4.55;3.13;;;;;;;;;;1040685;28;20108;-83
2022/10/20 01:29:00;;;;;;;5.10;3.13;;;;;;;;;;1040542;28;20029;-82
2022/10/20 01:29:37;;;;;;;7.18;4.63;;;;;;;;;;1039415;28;20033;-82
2022/10/20 01:30:10;;;;;;;9.02;5.28;;;;;;;;;;1038915;28;20555;-82
2022/10/20 01:30:46;;;;;;;7.22;4.53;;;;;;;;;;1038732;28;20092;-82
2022/10/20 01:31:26;;;;;;;6.50;4.60;;;;;;;;;;1039012;28;20117;-82
2022/10/20 01:32:12;;;;;;;8.95;4.70;;;;;;;;;;1038565;28;20053;-82
2022/10/20 01:33:00;;;;;;;6.53;4.95;;;;;;;;;;1039978;28;20106;-83
2022/10/20 01:33:39;;;;;;;4.82;3.90;;;;;;;;;;1035468;28;20025;-83
2022/10/20 01:34:10;;;;;;;;;;;;;;;;;;1035181;28;20616;-82
2022/10/20 01:34:41;;;;;;;7.57;4.30;;;;;;;;;;1034725;28;20383;-82
2022/10/20 01:35:21;;;;;;;5.72;3.75;;;;;;;;;;1035400;28;20308;-83
2022/10/20 01:35:54;;;;;;;6.50;3.90;;;;;;;;;;1034914;28;20431;-83
2022/10/20 01:36:31;;;;;;;12.30;4.85;;;;;;;;;;1034833;28;20113;-82
2022/10/20 01:37:17;;;;;;;6.38;4.50;;;;;;;;;;1037749;28;20080;-82
2022/10/20 01:37:52;;;;;;;7.45;4.65;;;;;;;;;;1043115;28;20324;-82
2022/10/20 01:38:29;;;;;;;6.43;4.68;;;;;;;;;;1043030;28;20025;-82
2022/10/20 01:39:02;;;;;;;7.75;5.05;;;;;;;;;;1038798;28;20029;-81
2022/10/20 01:39:49;;;;;;;7.30;4.65;;;;;;;;;;1038846;28;20037;-83
2022/10/20 01:40:25;;;;;;;9.15;4.65;;;;;;;;;;1037809;28;20017;-82
2022/10/20 01:41:08;;;;;;;6.72;5.07;;;;;;;;;;1038189;28;20048;-82
2022/10/20 01:41:39;;;;;;;6.80;4.13;;;;;;;;;;1034373;28;20026;-82
2022/10/20 01:42:13;;;;;;;6.97;5.38;;;;;;;;;;1032745;28;20030;-82
2022/10/20 01:42:45;;;;;;;7.57;4.60;;;;;;;;;;1030863;28;20050;-82
2022/10/20 01:43:18;;;;;;;6.78;3.85;;;;;;;;;;1031079;28;20035;-82
2022/10/20 01:43:50;;;;;;;10.80;4.38;;;;;;;;;;1035460;28;20022;-83
2022/10/20 01:44:24;;;;;;;5.85;4.75;;;;;;;;;;1034823;28;20026;-82
2022/10/20 01:44:56;;;;;;;5.18;4.03;;;;;;;;;;1039013;28;20423;-82
2022/10/20 01:45:28;;;;;;;7.78;4.07;;;;;;;;;;1039408;28;20028;-82
2022/10/20 01:46:00;;;;;;;7.47;4.10;;;;;;;;;;1034767;28;20036;-82
2022/10/20 01:46:32;;;;;;;6.15;4.60;;;;;;;;;;1034889;28;20101;-82
2022/10/20 01:47:03;;;;;;;10.75;4.10;;;;;;;;;;1035386;28;20685;-82
2022/10/20 01:47:35;;;;;;;8.07;4.40;;;;;;;;;;1038870;28;20725;-82
2022/10/20 01:48:07;;;;;;;6.93;4.80;;;;;;;;;;1039902;28;20056;-82
2022/10/20 01:48:39;;;;;;;5.47;3.35;;;;;;;;;;1037922;28;20039;-82
2022/10/20 01:49:11;;;;;;;8.23;4.45;;;;;;;;;;1038757;28;20076;-82
2022/10/20 01:49:42;;;;;;;8.05;4.68;;;;;;;;;;1038845;28;20025;-82
2022/10/20 01:50:14;;;;;;;7.35;4.55;;;;;;;;;;1038864;28;20153;-82
2022/10/20 01:50:46;;;;;;;4.63;3.97;;;;;;;;;;1039464;28;20069;-82
2022/10/20 01:51:16;;;;;;;5.35;3.80;;;;;;;;;;1038882;28;20132;-82
2022/10/20 01:51:47;;;;;;;7.55;4.05;;;;;;;;;;1038754;28;20064;-83
2022/10/20 01:52:20;;;;;;;6.50;4.78;;;;;;;;;;1039560;28;20030;-82
2022/10/20 01:52:56;;;;;;;4.18;3.60;;;;;;;;;;1038970;28;20022;-82
2022/10/20 01:53:27;;;;;;;5.55;4.57;;;;;;;;;;1039791;28;20028;-82
2022/10/20 01:53:58;;;;;;;6.82;3.72;;;;;;;;;;1038615;28;20030;-82
2022/10/20 01:54:29;;;;;;;5.88;3.90;;;;;;;;;;1038887;28;20022;-81
2022/10/20 01:55:00;;;;;;;6.10;4.13;;;;;;;;;;1038967;28;20025;-82
2022/10/20 01:55:31;;;;;;;6.18;4.47;;;;;;;;;;1037400;28;20116;-82
2022/10/20 01:56:03;;;;;;;5.50;3.92;;;;;;;;;;1039033;28;20707;-82
2022/10/20 01:56:49;;;;;;;7.35;4.68;;;;;;;;;;1038839;28;20071;-82
2022/10/20 01:57:23;;;;;;;6.75;4.05;;;;;;;;;;1040593;28;20558;-82
2022/10/20 01:57:54;;;;;;;5.47;4.10;;;;;;;;;;1039016;28;20022;-82
2022/10/20 01:58:27;;;;;;;6.80;4.03;;;;;;;;;;1042245;28;20010;-82
2022/10/20 01:58:58;;;;;;;5.13;3.80;;;;;;;;;;1038863;28;20017;-83
2022/10/20 01:59:36;;;;;;;4.50;3.70;;;;;;;;;;1034022;28;20129;-82
2022/10/20 02:00:09;;;;;;;8.77;4.05;;;;;;;;;;1030737;28;20270;-82
2022/10/20 02:00:41;;;;;;;7.55;4.78;;;;;;;;;;1034675;28;20476;-83
2022/10/20 02:01:15;;;;;;;7.93;4.13;;;;;;;;;;1036429;28;20038;-82
2022/10/20 02:01:57;;;;;;;5.28;4.07;;;;;;;;;;1038898;28;20032;-82
2022/10/20 02:02:38;;;;;;;7.68;4.80;;;;;;;;;;1041459;28;20025;-82
2022/10/20 02:03:28;;;;;;;9.10;4.50;;;;;;;;;;1038326;28;20080;-82
2022/10/20 02:03:59;;;;;;;5.85;4.68;;;;;;;;;;1037429;28;20036;-82
2022/10/20 02:04:47;;;;;;;8.45;4.93;;;;;;;;;;1030581;28;20026;-83
2022/10/20 02:05:18;;;;;;;7.47;4.38;;;;;;;;;;1030705;28;20110;-82
2022/10/20 02:05:51;;;;;;;5.45;4.28;;;;;;;;;;1033957;28;20107;-82
2022/10/20 02:06:41;;;;;;;7.35;4.40;;;;;;;;;;1031971;28;20041;-82
2022/10/20 02:07:16;;;;;;;5.68;3.90;;;;;;;;;;1033789;28;20521;-82
2022/10/20 02:07:48;;;;;;;6.80;4.55;;;;;;;;;;1033080;28;20089;-82
2022/10/20 02:08:18;;;;;;;6.20;4.35;;;;;;;;;;1038342;28;20029;-82
2022/10/20 02:08:55;;;;;;;5.43;4.03;;;;;;;;;;1039164;28;20053;-82
2022/10/20 02:09:40;;;;;;;9.15;4.00;;;;;;;;;;1037945;28;20079;-82
2022/10/20 02:10:18;;;;;;;6.43;4.35;;;;;;;;;;1034818;28;20022;-82
2022/10/20 02:10:50;;;;;;;5.68;4.20;;;;;;;;;;1038513;28;20070;-82
2022/10/20 02:11:43;;;;;;;6.00;4.28;;;;;;;;;;1035973;28;20048;-83
2022/10/20 02:12:20;;;;;;;7.30;3.83;;;;;;;;;;1034782;28;20487;-82
2022/10/20 02:12:54;;;;;;;6.95;3.58;;;;;;;;;;1036985;28;20064;-82
2022/10/20 02:13:26;;;;;;;7.53;4.57;;;;;;;;;;1034699;28;20022;-82
2022/10/20 02:13:58;;;;;;;5.97;4.43;;;;;;;;;;1030792;28;20089;-82
2022/10/20 02:14:31;;;;;;;6.03;4.68;;;;;;;;;;1029127;28;20023;-82
2022/10/20 02:15:03;;;;;;;5.55;4.18;;;;;;;;;;1031429;28;20093;-82
2022/10/20 02:15:36;;;;;;;8.02;5.30;;;;;;;;;;1030720;28;20030;-82
2022/10/20 02:16:09;;;;;;;6.32;3.95;;;;;;;;;;1033728;28;20069;-82
2022/10/20 02:16:43;;;;;;;7.50;4.80;;;;;;;;;;1038725;28;20728;-82
2022/10/20 02:17:17;;;;;;;7.45;4.50;;;;;;;;;;1038759;28;20029;-82
2022/10/20 02:17:51;;;;;;;6.10;4.95;;;;;;;;;;1038469;28;20025;-82
2022/10/20 02:18:25;;;;;;;8.40;4.97;;;;;;;;;;1040018;28;20026;-82
2022/10/20 02:18:57;;;;;;;6.43;4.72;;;;;;;;;;1039431;28;20029;-82
2022/10/20 02:19:30;;;;;;;5.68;3.90;;;;;;;;;;1036637;28;20033;-81
2022/10/20 02:20:04;;;;;;;7.72;5.07;;;;;;;;;;1030408;28;20030;-82
2022/10/20 02:20:35;;;;;;;8.93;4.75;;;;;;;;;;1030824;28;20099;-82
2022/10/20 02:21:07;;;;;;;8.15;4.57;;;;;;;;;;1032968;28;20023;-81
2022/10/20 02:21:38;;;;;;;5.60;4.45;;;;;;;;;;1038966;28;20056;-81
2022/10/20 02:22:10;;;;;;;6.13;4.40;;;;;;;;;;1034874;28;20022;-81
2022/10/20 02:22:40;;;;;;;5.88;4.43;;;;;;;;;;1039256;28;20053;-81
2022/10/20 02:23:11;;;;;;;5.53;4.35;;;;;;;;;;1034783;28;20022;-81
2022/10/20 02:23:44;;;;;;;7.15;5.13;;;;;;;;;;1035229;28;20689;-81
2022/10/20 02:24:16;;;;;;;7.95;5.32;;;;;;;;;;1035275;28;20090;-81
2022/10/20 02:24:47;;;;;;;7.60;4.53;;;;;;;;;;1036555;28;20053;-81
2022/10/20 02:25:19;;;;;;;5.70;4.10;;;;;;;;;;1030634;28;20033;-81
2022/10/20 02:25:51;;;;;;;7.00;4.68;;;;;;;;;;1030691;28;20049;-81
2022/10/20 02:26:24;;;;;;;9.13;4.57;;;;;;;;;;1035050;28;20037;-81
2022/10/20 02:26:57;;;;;;;5.75;4.85;;;;;;;;;;1038952;28;20033;-81
2022/10/20 02:27:32;;;;;;;5.38;4.40;;;;;;;;;;1033654;28;20049;-81
2022/10/20 02:28:04;;;;;;;8.13;4.53;;;;;;;;;;1030878;28;20777;-82
2022/10/20 02:28:35;;;;;;;6.75;4.18;;;;;;;;;;1034763;28;20026;-81
2022/10/20 02:29:14;;;;;;;6.15;4.45;;;;;;;;;;1036233;28;20044;-81
2022/10/20 02:29:47;;;;;;;6.18;4.75;;;;;;;;;;1038372;28;20578;-81
2022/10/20 02:30:18;;;;;;;5.43;4.60;;;;;;;;;;1038730;28;20103;-81
2022/10/20 02:30:49;;;;;;;7.97;4.30;;;;;;;;;;1034851;28;20485;-81
2022/10/20 02:31:20;;;;;;;6.20;4.43;;;;;;;;;;1038251;28;20026;-80
2022/10/20 02:31:51;;;;;;;7.03;4.63;;;;;;;;;;1039123;28;20048;-81
2022/10/20 02:32:23;;;;;;;7.72;4.10;;;;;;;;;;1035080;28;20026;-81
2022/10/20 02:32:54;;;;;;;8.35;4.47;;;;;;;;;;1034789;28;20143;-81
2022/10/20 02:33:26;;;;;;;5.85;4.80;;;;;;;;;;1034686;28;20812;-81
2022/10/20 02:33:57;;;;;;;7.20;5.03;;;;;;;;;;1031688;28;20092;-81
2022/10/20 02:34:28;;;;;;;5.68;4.28;;;;;;;;;;1036315;28;20022;-81
2022/10/20 02:34:59;;;;;;;6.00;4.38;;;;;;;;;;1034717;28;20136;-81
2022/10/20 02:35:31;;;;;;;6.45;4.32;;;;;;;;;;1031153;28;20154;-81
2022/10/20 02:36:04;;;;;;;7.85;3.90;;;;;;;;;;1030482;28;20030;-81
2022/10/20 02:36:37;;;;;;;8.23;5.13;;;;;;;;;;1034156;28;20125;-82
2022/10/20 02:37:08;;;;;;;6.50;5.28;;;;;;;;;;1038696;28;20040;-83
2022/10/20 02:37:39;;;;;;;8.32;5.13;;;;;;;;;;1034718;28;20144;-82
2022/10/20 02:38:10;;;;;;;9.93;5.30;;;;;;;;;;1033958;28;20389;-82
2022/10/20 02:38:41;;;;;;;7.72;4.97;;;;;;;;;;1030818;28;20049;-82
2022/10/20 02:39:12;;;;;;;6.18;4.50;;;;;;;;;;1031654;28;20022;-82
2022/10/20 02:39:43;;;;;;;9.93;4.95;;;;;;;;;;1035175;28;20025;-82
2022/10/20 02:40:14;;;;;;;8.50;4.60;;;;;;;;;;1038492;28;20052;-83
2022/10/20 02:40:46;;;;;;;7.97;4.82;;;;;;;;;;1034785;28;20065;-82
2022/10/20 02:41:16;;;;;;;4.32;3.80;;;;;;;;;;1034320;28;20580;-83
2022/10/20 02:41:47;;;;;;;5.85;4.30;;;;;;;;;;1033947;28;20576;-82
2022/10/20 02:42:18;;;;;;;5.55;4.50;;;;;;;;;;1038909;28;20039;-82
2022/10/20 02:42:50;;;;;;;6.25;4.88;;;;;;;;;;1042241;28;20044;-82
2022/10/20 02:43:20;;;;;;;5.55;4.43;;;;;;;;;;1034240;28;20136;-82
2022/10/20 02:43:51;;;;;;;8.02;4.72;;;;;;;;;;1030957;28;20040;-82
2022/10/20 02:44:22;;;;;;;7.35;4.15;;;;;;;;;;1031270;28;20804;-82
2022/10/20 02:44:54;;;;;;;5.50;4.40;;;;;;;;;;1034822;28;20092;-82
2022/10/20 02:45:25;;;;;;;7.82;4.78;;;;;;;;;;1030542;28;20065;-82
2022/10/20 02:45:56;;;;;;;7.85;5.38;;;;;;;;;;1030755;28;20053;-81
2022/10/20 02:46:27;;;;;;;12.07;5.45;;;;;;;;;;1027439;28;20018;-82
2022/10/20 02:46:58;;;;;;;7.22;4.78;;;;;;;;;;1030410;28;20106;-82
2022/10/20 02:47:29;;;;;;;8.65;4.45;;;;;;;;;;1034877;28;20464;-82
2022/10/20 02:48:00;;;;;;;7.88;6.07;;;;;;;;;;1034478;28;20581;-82
2022/10/20 02:48:31;;;;;;;6.03;4.75;;;;;;;;;;1035782;28;20048;-82
2022/10/20 02:49:02;;;;;;;5.45;4.65;;;;;;;;;;1039645;28;20025;-82
2022/10/20 02:49:33;;;;;;;7.68;5.38;;;;;;;;;;1039405;28;20021;-81
2022/10/20 02:50:04;;;;;;;10.98;5.95;;;;;;;;;;1034748;28;20464;-81
2022/10/20 02:50:36;;;;;;;6.55;4.85;;;;;;;;;;1034791;28;20856;-82
2022/10/20 02:51:07;;;;;;;7.68;4.90;;;;;;;;;;1035046;28;20125;-81
2022/10/20 02:51:38;;;;;;;7.30;4.65;;;;;;;;;;1033812;28;20022;-81
2022/10/20 02:52:08;;;;;;;6.93;4.75;;;;;;;;;;1034480;28;20014;-81
2022/10/20 02:52:40;;;;;;;5.32;4.53;;;;;;;;;;1035061;28;20010;-81
2022/10/20 02:53:11;;;;;;;7.30;5.25;;;;;;;;;;1039850;28;20011;-82
2022/10/20 02:53:42;;;;;;;7.00;4.65;;;;;;;;;;1040927;28;20041;-82
2022/10/20 02:54:13;;;;;;;7.07;4.93;;;;;;;;;;1038702;28;20017;-82
2022/10/20 02:54:43;;;;;;;5.78;5.05;;;;;;;;;;1039439;28;20044;-81
2022/10/20 02:55:14;;;;;;;7.50;4.78;;;;;;;;;;1038664;28;20017;-81
2022/10/20 02:55:45;;;;;;;4.65;3.60;;;;;;;;;;1038917;28;20926;-82
2022/10/20 02:56:16;;;;;;;10.05;4.57;;;;;;;;;;1038777;28;20044;-81
2022/10/20 02:56:47;;;;;;;7.15;4.60;;;;;;;;;;1042075;28;20705;-82
2022/10/20 02:57:19;;;;;;;6.53;4.97;;;;;;;;;;1040081;28;20352;-81
2022/10/20 02:57:52;;;;;;;5.72;4.28;;;;;;;;;;1038652;28;20021;-81
2022/10/20 02:58:23;;;;;;;12.02;6.38;;;;;;;;;;1040741;28;20023;-82
2022/10/20 02:58:54;;;;;;;5.32;4.20;;;;;;;;;;1036621;28;20022;-81
2022/10/20 02:59:25;;;;;;;5.25;4.63;;;;;;;;;;1034614;28;20026;-81
2022/10/20 02:59:56;;;;;;;8.20;5.70;;;;;;;;;;1037872;28;20022;-81
2022/10/20 03:00:29;;;;;;;11.27;6.47;;;;;;;;;;1041099;28;20174;-81
2022/10/20 03:01:01;;;;;;;7.30;4.95;;;;;;;;;;1034623;28;20835;-82
2022/10/20 03:01:32;;;;;;;13.65;6.05;;;;;;;;;;1035115;28;20033;-81
2022/10/20 03:02:03;;;;;;;5.85;4.80;;;;;;;;;;1038832;28;20025;-82
2022/10/20 03:02:34;;;;;;;6.55;4.75;;;;;;;;;;1039384;28;20013;-82
2022/10/20 03:03:05;;;;;;;5.18;4.13;;;;;;;;;;1038708;28;20025;-82
2022/10/20 03:03:36;;;;;;;5.55;4.15;;;;;;;;;;1038636;28;20448;-82
2022/10/20 03:04:07;;;;;;;8.02;5.28;;;;;;;;;;1034932;28;20575;-81
2022/10/20 03:04:37;;;;;;;5.18;4.60;;;;;;;;;;1039032;28;20128;-82
2022/10/20 03:05:09;;;;;;;7.75;4.70;;;;;;;;;;1039095;28;20022;-82
2022/10/20 03:05:43;;;;;;;7.00;5.00;;;;;;;;;;1038680;28;20033;-82
2022/10/20 03:06:15;;;;;;;7.32;5.32;;;;;;;;;;1038095;28;20579;-82
2022/10/20 03:06:46;;;;;;;8.93;6.57;;;;;;;;;;1034733;28;20022;-81
2022/10/20 03:07:17;;;;;;;8.95;4.78;;;;;;;;;;1031741;28;20090;-82
2022/10/20 03:07:48;;;;;;;8.40;4.75;;;;;;;;;;1036533;28;20017;-82
2022/10/20 03:08:20;;;;;;;8.43;5.00;;;;;;;;;;1038524;28;20504;-82
2022/10/20 03:08:51;;;;;;;8.40;4.90;;;;;;;;;;1038722;28;20045;-82
2022/10/20 03:09:22;;;;;;;7.70;5.30;;;;;;;;;;1037118;28;20482;-82
2022/10/20 03:09:52;;;;;;;7.22;5.30;;;;;;;;;;1035677;28;20484;-81
2022/10/20 03:10:23;;;;;;;6.90;4.53;;;;;;;;;;1034999;28;20032;-81
2022/10/20 03:10:54;;;;;;;5.78;4.88;;;;;;;;;;1034703;28;20924;-82
2022/10/20 03:11:25;;;;;;;7.80;5.30;;;;;;;;;;1034818;28;20022;-81
2022/10/20 03:11:56;;;;;;;6.93;4.55;;;;;;;;;;1030473;28;20615;-81
2022/10/20 03:12:27;;;;;;;7.43;5.95;;;;;;;;;;1031496;28;20116;-81
2022/10/20 03:12:58;;;;;;;8.13;5.28;;;;;;;;;;1037997;28;20037;-81
2022/10/20 03:13:29;;;;;;;8.45;5.50;;;;;;;;;;1038518;28;20032;-82
2022/10/20 03:14:00;;;;;;;7.65;5.88;;;;;;;;;;1042135;28;20033;-81
2022/10/20 03:14:31;;;;;;;7.60;4.78;;;;;;;;;;1040078;28;20071;-81
2022/10/20 03:15:03;;;;;;;6.22;4.85;;;;;;;;;;1043282;28;20017;-81
2022/10/20 03:15:34;;;;;;;7.18;4.47;;;;;;;;;;1042965;28;20021;-81
2022/10/20 03:16:05;;;;;;;6.90;4.95;;;;;;;;;;1042277;28;20025;-81
2022/10/20 03:16:36;;;;;;;8.43;4.93;;;;;;;;;;1038879;28;20029;-81
2022/10/20 03:17:07;;;;;;;8.82;5.20;;;;;;;;;;1038348;28;20050;-81
2022/10/20 03:17:38;;;;;;;6.72;4.78;;;;;;;;;;1037066;28;20025;-81
2022/10/20 03:18:09;;;;;;;6.55;4.85;;;;;;;;;;1042150;28;20096;-81
2022/10/20 03:18:39;;;;;;;6.53;5.63;;;;;;;;;;1038310;28;20072;-81
2022/10/20 03:19:10;;;;;;;5.68;4.32;;;;;;;;;;1030730;28;20033;-81